createdAt,value
2018-09-24T00:02:17.838Z,99909.81
2018-09-24T00:04:46.162Z,99910.27
2018-09-24T00:07:14.454Z,99917.37
2018-09-24T00:09:42.830Z,99926.23
2018-09-24T00:12:11.150Z,99924.54
2018-09-24T00:14:39.519Z,99926.78
2018-09-24T00:17:07.830Z,99936.05
2018-09-24T00:19:36.159Z,99938.31
2018-09-24T00:22:04.555Z,99935.77
2018-09-24T00:24:32.869Z,99945.88
2018-09-24T00:27:01.169Z,99950.77
2018-09-24T00:29:29.583Z,99957.38
2018-09-24T00:31:57.882Z,99958.33
2018-09-24T00:34:26.221Z,99957.47
2018-09-24T00:36:54.556Z,99968.05
2018-09-24T00:39:23.723Z,99971.55
2018-09-24T00:41:52.014Z,99972.97
2018-09-24T00:44:20.333Z,99972.11
2018-09-24T00:46:48.772Z,99975.70
2018-09-24T00:49:17.130Z,99976.07
2018-09-24T00:51:45.454Z,99976.16
2018-09-24T00:54:13.798Z,99979.27
2018-09-24T00:56:42.118Z,99981.05
2018-09-24T00:59:10.522Z,99984.19
2018-09-24T01:01:38.940Z,99993.44
2018-09-24T01:04:07.557Z,99994.36
2018-09-24T01:06:35.938Z,99999.28
2018-09-24T01:09:05.039Z,100012.04
2018-09-24T01:11:33.377Z,100021.30
2018-09-24T01:14:01.698Z,100024.40
2018-09-24T01:16:30.085Z,100028.00
2018-09-24T01:18:58.506Z,100034.61
2018-09-24T01:21:26.818Z,100039.48
2018-09-24T01:23:55.133Z,100048.75
2018-09-24T01:26:23.474Z,100056.31
2018-09-24T01:28:51.779Z,100068.13
2018-09-24T01:31:20.116Z,100065.08
2018-09-24T01:33:48.457Z,100069.98
2018-09-24T01:36:16.807Z,100073.58
2018-09-24T01:38:45.105Z,100073.58
2018-09-24T01:41:13.416Z,100080.20
2018-09-24T01:43:41.854Z,100082.34
2018-09-24T01:46:10.234Z,100082.34
2018-09-24T01:48:38.618Z,100083.67
2018-09-24T01:51:06.986Z,100089.45
2018-09-24T01:53:35.322Z,100094.83
2018-09-24T01:56:03.647Z,100099.62
2018-09-24T01:58:36.432Z,100111.52
2018-09-24T02:01:05.334Z,100108.97
2018-09-24T02:03:34.666Z,100114.66
2018-09-24T02:06:03.747Z,100120.32
2018-09-24T02:08:32.114Z,100125.61
2018-09-24T02:11:00.562Z,100121.27
2018-09-24T02:13:28.948Z,100119.45
2018-09-24T02:15:57.246Z,100122.97
2018-09-24T02:18:25.543Z,100129.20
2018-09-24T02:20:53.926Z,100131.84
2018-09-24T02:23:22.235Z,100129.25
2018-09-24T02:25:50.523Z,100129.75
2018-09-24T02:28:18.823Z,100135.86
2018-09-24T02:30:47.370Z,100139.00
2018-09-24T02:33:15.647Z,100139.83
2018-09-24T02:35:49.208Z,100148.63
2018-09-24T02:38:19.330Z,100139.00
2018-09-24T02:40:47.706Z,100144.28
2018-09-24T02:43:25.994Z,100147.39
2018-09-24T02:45:55.415Z,100150.12
2018-09-24T02:48:23.758Z,100151.90
2018-09-24T02:50:52.070Z,100156.73
2018-09-24T02:53:20.452Z,100157.59
2018-09-24T02:55:48.730Z,100156.73
2018-09-24T02:58:18.917Z,100158.42
2018-09-24T03:00:47.339Z,100164.66
2018-09-24T03:03:15.643Z,100164.66
2018-09-24T03:05:44.579Z,100164.25
2018-09-24T03:08:13.830Z,100178.80
2018-09-24T03:10:42.463Z,100177.56
2018-09-24T03:13:10.766Z,100185.90
2018-09-24T03:15:40.659Z,100187.67
2018-09-24T03:18:09.624Z,100193.42
2018-09-24T03:20:42.878Z,100193.83
2018-09-24T03:23:11.303Z,100199.12
2018-09-24T03:25:40.003Z,100210.23
2018-09-24T03:28:08.326Z,100211.56
2018-09-24T03:30:38.793Z,100211.56
2018-09-24T03:33:07.104Z,100220.81
2018-09-24T03:35:36.250Z,100217.80
2018-09-24T03:38:04.570Z,100216.93
2018-09-24T03:40:33.026Z,100217.84
2018-09-24T03:43:01.427Z,100211.23
2018-09-24T03:45:30.389Z,100215.69
2018-09-24T03:47:58.905Z,100208.67
2018-09-24T03:50:27.395Z,100212.64
2018-09-24T03:52:55.674Z,100210.94
2018-09-24T03:55:23.998Z,100217.09
2018-09-24T03:57:52.306Z,100223.30
2018-09-24T04:00:20.580Z,100229.91
2018-09-24T04:02:48.923Z,100233.03
2018-09-24T04:05:22.638Z,100232.63
2018-09-24T04:07:56.199Z,100242.75
2018-09-24T04:10:29.918Z,100248.95
2018-09-24T04:13:03.410Z,100254.80
2018-09-24T04:15:37.079Z,100258.81
2018-09-24T04:18:10.733Z,100261.95
2018-09-24T04:20:44.709Z,100262.86
2018-09-24T04:23:18.370Z,100260.79
2018-09-24T04:25:52.049Z,100263.02
2018-09-24T04:28:25.726Z,100270.50
2018-09-24T04:30:59.527Z,100277.11
2018-09-24T04:33:33.114Z,100279.83
2018-09-24T04:36:06.640Z,100285.57
2018-09-24T04:38:40.242Z,100294.82
2018-09-24T04:41:13.842Z,100288.75
2018-09-24T04:43:47.646Z,100286.02
2018-09-24T04:46:21.323Z,100293.95
2018-09-24T04:48:55.083Z,100293.95
2018-09-24T04:51:28.758Z,100302.38
2018-09-24T04:54:02.226Z,100301.13
2018-09-24T04:56:35.974Z,100300.27
2018-09-24T04:59:09.649Z,100308.20
2018-09-24T05:01:43.314Z,100317.45
2018-09-24T05:04:16.949Z,100321.49
2018-09-24T05:06:50.524Z,100323.27
2018-09-24T05:09:24.149Z,100327.61
2018-09-24T05:11:57.644Z,100328.17
2018-09-24T05:14:31.159Z,100331.73
2018-09-24T05:17:04.894Z,100338.34
2018-09-24T05:19:38.442Z,100342.30
2018-09-24T05:22:11.998Z,100344.16
2018-09-24T05:24:45.480Z,100346.42
2018-09-24T05:27:19.033Z,100345.97
2018-09-24T05:29:52.539Z,100354.81
2018-09-24T05:32:26.152Z,100348.20
2018-09-24T05:34:59.838Z,100350.54
2018-09-24T05:37:33.365Z,100361.95
2018-09-24T05:40:07.278Z,100367.23
2018-09-24T05:42:40.734Z,100377.80
2018-09-24T05:45:14.183Z,100380.52
2018-09-24T05:47:47.804Z,100387.20
2018-09-24T05:50:22.294Z,100394.68
2018-09-24T05:52:55.883Z,100393.44
2018-09-24T05:55:29.423Z,100394.30
2018-09-24T05:58:03.158Z,100397.25
2018-09-24T06:00:36.560Z,100401.59
2018-09-24T06:03:10.075Z,100403.70
2018-09-24T06:05:43.566Z,100411.18
2018-09-24T06:08:17.103Z,100416.47
2018-09-24T06:10:50.800Z,100424.33
2018-09-24T06:13:24.633Z,100422.63
2018-09-24T06:15:58.125Z,100426.89
2018-09-24T06:18:31.638Z,100432.97
2018-09-24T06:21:05.270Z,100439.84
2018-09-24T06:23:38.695Z,100446.15
2018-09-24T06:26:12.394Z,100448.03
2018-09-24T06:28:45.782Z,100454.37
2018-09-24T06:31:19.481Z,100457.17
2018-09-24T06:33:53.215Z,100461.78
2018-09-24T06:36:26.570Z,100462.30
2018-09-24T06:39:00.098Z,100471.25
2018-09-24T06:41:33.646Z,100468.86
2018-09-24T06:44:07.406Z,100477.55
2018-09-24T06:46:41.010Z,100473.42
2018-09-24T06:49:14.616Z,100485.09
2018-09-24T06:51:48.158Z,100483.61
2018-09-24T06:54:21.843Z,100482.55
2018-09-24T06:56:55.476Z,100481.48
2018-09-24T06:59:29.164Z,100487.48
2018-09-24T07:02:02.811Z,100492.08
2018-09-24T07:04:36.289Z,100495.36
2018-09-24T07:07:09.919Z,100490.77
2018-09-24T07:09:43.718Z,100494.59
2018-09-24T07:12:17.231Z,100500.97
2018-09-24T07:14:50.793Z,100506.52
2018-09-24T07:17:24.298Z,100513.84
2018-09-24T07:19:58.806Z,100521.09
2018-09-24T07:22:32.388Z,100517.33
2018-09-24T07:25:05.915Z,100525.16
2018-09-24T07:27:39.570Z,100531.53
2018-09-24T07:30:13.115Z,100530.45
2018-09-24T07:32:46.701Z,100540.84
2018-09-24T07:35:20.216Z,100544.20
2018-09-24T07:37:53.787Z,100547.55
2018-09-24T07:40:27.194Z,100548.64
2018-09-24T07:43:00.724Z,100551.53
2018-09-24T07:45:34.331Z,100556.13
2018-09-24T07:48:08.027Z,100560.32
2018-09-24T07:50:41.515Z,100550.34
2018-09-24T07:53:15.271Z,100553.77
2018-09-24T07:55:48.931Z,100551.83
2018-09-24T07:58:22.515Z,100560.39
2018-09-24T08:00:55.958Z,100570.00
2018-09-24T08:03:29.547Z,100574.27
2018-09-24T08:06:03.247Z,100573.27
2018-09-24T08:08:36.911Z,100574.02
2018-09-24T08:11:10.587Z,100583.00
2018-09-24T08:13:44.091Z,100591.87
2018-09-24T08:16:17.767Z,100594.41
2018-09-24T08:18:51.465Z,100603.36
2018-09-24T08:21:24.899Z,100610.36
2018-09-24T08:23:58.403Z,100607.25
2018-09-24T08:26:31.807Z,100613.63
2018-09-24T08:29:05.362Z,100617.06
2018-09-24T08:31:38.914Z,100615.28
2018-09-24T08:34:12.674Z,100618.02
2018-09-24T08:36:46.234Z,100618.47
2018-09-24T08:39:19.758Z,100622.86
2018-09-24T08:41:53.355Z,100629.24
2018-09-24T08:44:26.890Z,100631.09
2018-09-24T08:47:00.439Z,100636.06
2018-09-24T08:49:34.150Z,100638.59
2018-09-24T08:52:07.602Z,100640.13
2018-09-24T08:54:41.230Z,100637.25
2018-09-24T08:57:14.958Z,100638.70
2018-09-24T08:59:48.471Z,100641.56
2018-09-24T09:02:22.042Z,100645.87
2018-09-24T09:04:55.647Z,100641.72
2018-09-24T09:07:29.271Z,100644.19
2018-09-24T09:10:02.831Z,100642.84
2018-09-24T09:12:37.258Z,100648.70
2018-09-24T09:15:10.972Z,100646.36
2018-09-24T09:17:44.446Z,100647.52
2018-09-24T09:20:17.998Z,100647.85
2018-09-24T09:22:51.625Z,100651.80
2018-09-24T09:25:25.167Z,100647.17
2018-09-24T09:27:58.784Z,100654.19
2018-09-24T09:30:32.490Z,100654.41
2018-09-24T09:33:06.066Z,100657.89
2018-09-24T09:35:39.635Z,100664.40
2018-09-24T09:38:13.327Z,100661.05
2018-09-24T09:40:46.991Z,100665.88
2018-09-24T09:43:20.588Z,100656.55
2018-09-24T09:45:54.118Z,100663.41
2018-09-24T09:48:27.771Z,100678.27
2018-09-24T09:51:01.391Z,100673.88
2018-09-24T09:53:35.010Z,100668.66
2018-09-24T09:56:08.462Z,100664.67
2018-09-24T09:58:41.962Z,100665.84
2018-09-24T10:01:15.466Z,100666.67
2018-09-24T10:03:48.975Z,100671.39
2018-09-24T10:06:22.707Z,100667.33
2018-09-24T10:08:56.111Z,100666.79
2018-09-24T10:11:29.662Z,100659.25
2018-09-24T10:14:03.358Z,100663.16
2018-09-24T10:16:37.003Z,100666.13
2018-09-24T10:19:10.725Z,100672.77
2018-09-24T10:21:44.422Z,100667.66
2018-09-24T10:24:17.886Z,100669.49
2018-09-24T10:26:51.468Z,100673.48
2018-09-24T10:29:25.114Z,100671.94
2018-09-24T10:31:58.831Z,100666.38
2018-09-24T10:34:32.542Z,100660.34
2018-09-24T10:37:06.087Z,100654.52
2018-09-24T10:39:39.798Z,100654.50
2018-09-24T10:42:14.018Z,100654.77
2018-09-24T10:44:47.591Z,100671.52
2018-09-24T10:47:21.103Z,100665.02
2018-09-24T10:49:54.707Z,100662.23
2018-09-24T10:52:28.434Z,100668.84
2018-09-24T10:55:02.114Z,100661.64
2018-09-24T10:57:35.837Z,100661.16
2018-09-24T11:00:09.936Z,100666.99
2018-09-24T11:02:43.726Z,100669.77
2018-09-24T11:05:17.626Z,100671.71
2018-09-24T11:07:51.319Z,100668.13
2018-09-24T11:10:25.352Z,100668.16
2018-09-24T11:12:58.949Z,100673.34
2018-09-24T11:15:32.773Z,100675.71
2018-09-24T11:18:13.528Z,100676.19
2018-09-24T11:20:47.078Z,100673.73
2018-09-24T11:23:21.088Z,100674.76
2018-09-24T11:25:54.735Z,100678.23
2018-09-24T11:28:28.387Z,100681.72
2018-09-24T11:31:01.929Z,100675.48
2018-09-24T11:33:35.705Z,100678.50
2018-09-24T11:36:09.351Z,100682.26
2018-09-24T11:38:43.126Z,100686.05
2018-09-24T11:41:16.775Z,100688.70
2018-09-24T11:43:50.325Z,100690.03
2018-09-24T11:46:23.988Z,100698.61
2018-09-24T11:48:57.594Z,100696.73
2018-09-24T11:51:31.161Z,100694.85
2018-09-24T11:54:04.903Z,100697.87
2018-09-24T11:56:38.360Z,100697.45
2018-09-24T11:59:11.906Z,100692.03
2018-09-24T12:01:45.599Z,100681.82
2018-09-24T12:04:19.582Z,100684.41
2018-09-24T12:06:53.224Z,100685.64
2018-09-24T12:09:26.915Z,100677.45
2018-09-24T12:12:00.383Z,100677.83
2018-09-24T12:14:34.107Z,100674.89
2018-09-24T12:17:07.688Z,100670.80
2018-09-24T12:19:41.439Z,100671.66
2018-09-24T12:22:15.102Z,100666.88
2018-09-24T12:24:48.712Z,100661.64
2018-09-24T12:27:22.316Z,100661.72
2018-09-24T12:29:55.922Z,100661.89
2018-09-24T12:32:29.997Z,100670.02
2018-09-24T12:35:03.687Z,100666.38
2018-09-24T12:37:37.446Z,100660.81
2018-09-24T12:40:11.621Z,100665.82
2018-09-24T12:42:45.300Z,100663.78
2018-09-24T12:45:19.067Z,100666.44
2018-09-24T12:47:53.537Z,100658.70
2018-09-24T12:50:27.198Z,100654.09
2018-09-24T12:53:01.276Z,100650.37
2018-09-24T12:55:34.890Z,100658.04
2018-09-24T12:58:08.728Z,100641.90
2018-09-24T13:00:42.770Z,100653.17
2018-09-24T13:03:16.790Z,100646.13
2018-09-24T13:05:50.378Z,100651.06
2018-09-24T13:08:24.263Z,100657.16
2018-09-24T13:10:58.136Z,100647.08
2018-09-24T13:13:32.015Z,100637.00
2018-09-24T13:16:05.685Z,100639.75
2018-09-24T13:18:39.406Z,100632.24
2018-09-24T13:21:13.910Z,100650.74
2018-09-24T13:23:47.806Z,100656.01
2018-09-24T13:26:21.361Z,100657.02
2018-09-24T13:28:55.066Z,100650.78
2018-09-24T13:31:29.163Z,100650.93
2018-09-24T13:34:02.799Z,100654.23
2018-09-24T13:36:36.679Z,100655.27
2018-09-24T13:39:13.658Z,100672.80
2018-09-24T13:41:47.795Z,100676.55
2018-09-24T13:44:21.462Z,100676.64
2018-09-24T13:46:55.806Z,100671.70
2018-09-24T13:49:29.503Z,100671.16
2018-09-24T13:52:03.401Z,100670.69
2018-09-24T13:54:37.177Z,100665.84
2018-09-24T13:57:11.494Z,100661.59
2018-09-24T13:59:45.362Z,100663.33
2018-09-24T14:02:19.279Z,100659.02
2018-09-24T14:04:53.570Z,100657.23
2018-09-24T14:07:27.202Z,100655.91
2018-09-24T14:10:00.917Z,100655.05
2018-09-24T14:12:34.551Z,100655.13
2018-09-24T14:15:08.036Z,100657.96
2018-09-24T14:17:41.972Z,100655.94
2018-09-24T14:20:15.792Z,100656.12
2018-09-24T14:22:49.345Z,100654.70
2018-09-24T14:25:23.111Z,100658.59
2018-09-24T14:27:56.518Z,100656.89
2018-09-24T14:30:30.121Z,100658.23
2018-09-24T14:33:03.902Z,100655.94
2018-09-24T14:35:37.551Z,100657.04
2018-09-24T14:38:11.634Z,100654.73
2018-09-24T14:40:45.386Z,100661.19
2018-09-24T14:43:19.171Z,100659.58
2018-09-24T14:45:52.945Z,100659.75
2018-09-24T14:48:26.731Z,100661.63
2018-09-24T14:51:01.550Z,100656.86
2018-09-24T14:53:35.559Z,100649.06
2018-09-24T14:56:09.270Z,100652.73
2018-09-24T14:58:42.966Z,100647.42
2018-09-24T15:01:17.057Z,100642.74
2018-09-24T15:03:50.956Z,100646.35
2018-09-24T15:06:24.874Z,100649.09
2018-09-24T15:08:58.569Z,100660.63
2018-09-24T15:11:32.814Z,100655.81
2018-09-24T15:14:06.551Z,100655.41
2018-09-24T15:16:40.320Z,100658.38
2018-09-24T15:19:14.213Z,100661.95
2018-09-24T15:21:48.234Z,100660.63
2018-09-24T15:24:22.185Z,100660.16
2018-09-24T15:26:56.007Z,100661.66
2018-09-24T15:29:29.891Z,100660.02
2018-09-24T15:37:14.060Z,100654.52
2018-09-24T15:39:47.739Z,100658.58
2018-09-24T15:42:21.627Z,100655.69
2018-09-24T15:44:55.819Z,100657.97
2018-09-24T15:47:29.654Z,100668.09
2018-09-24T15:50:03.376Z,100653.58
2018-09-24T15:52:36.963Z,100660.21
2018-09-24T15:55:10.823Z,100658.97
2018-09-24T15:57:44.731Z,100654.20
2018-09-24T16:00:18.571Z,100660.84
2018-09-24T16:02:52.307Z,100649.30
2018-09-24T16:05:26.299Z,100656.72
2018-09-24T16:08:00.211Z,100656.23
2018-09-24T16:10:33.834Z,100653.98
2018-09-24T16:13:07.394Z,100648.77
2018-09-24T16:15:40.793Z,100654.11
2018-09-24T16:18:14.585Z,100662.65
2018-09-24T16:20:48.063Z,100661.11
2018-09-24T16:23:21.786Z,100654.81
2018-09-24T16:25:55.438Z,100668.74
2018-09-24T16:28:29.278Z,100674.61
2018-09-24T16:31:03.027Z,100676.36
2018-09-24T16:33:36.737Z,100681.59
2018-09-24T16:36:10.495Z,100688.56
2018-09-24T16:38:44.191Z,100691.89
2018-09-24T16:41:17.894Z,100696.98
2018-09-24T16:43:51.767Z,100701.58
2018-09-24T16:46:25.254Z,100694.63
2018-09-24T16:48:58.866Z,100693.46
2018-09-24T16:51:32.467Z,100703.33
2018-09-24T16:54:06.366Z,100701.22
2018-09-24T16:56:40.859Z,100714.02
2018-09-24T16:59:14.791Z,100717.21
2018-09-24T17:01:48.776Z,100718.16
2018-09-24T17:04:22.453Z,100726.50
2018-09-24T17:06:55.955Z,100713.80
2018-09-24T17:09:29.591Z,100725.73
2018-09-24T17:12:03.381Z,100722.30
2018-09-24T17:14:37.291Z,100725.65
2018-09-24T17:17:11.145Z,100735.31
2018-09-24T17:19:44.754Z,100735.77
2018-09-24T17:22:18.505Z,100732.36
2018-09-24T17:24:52.219Z,100739.98
2018-09-24T17:27:25.715Z,100738.27
2018-09-24T17:29:59.376Z,100744.12
2018-09-24T17:32:33.224Z,100741.63
2018-09-24T17:35:06.725Z,100746.59
2018-09-24T17:37:40.162Z,100752.97
2018-09-24T17:40:13.870Z,100759.29
2018-09-24T17:42:47.590Z,100753.61
2018-09-24T17:45:21.151Z,100759.98
2018-09-24T17:47:54.642Z,100764.33
2018-09-24T17:50:28.282Z,100767.47
2018-09-24T17:53:01.895Z,100771.38
2018-09-24T17:55:35.446Z,100770.35
2018-09-24T17:58:09.085Z,100772.39
2018-09-24T18:00:42.646Z,100781.52
2018-09-24T18:03:16.247Z,100781.77
2018-09-24T18:05:49.826Z,100784.67
2018-09-24T18:08:23.478Z,100785.77
2018-09-24T18:10:56.962Z,100790.71
2018-09-24T18:13:30.490Z,100784.97
2018-09-24T18:16:04.171Z,100795.52
2018-09-24T18:18:37.683Z,100795.44
2018-09-24T18:21:11.506Z,100799.34
2018-09-24T18:23:46.111Z,100807.23
2018-09-24T18:26:19.836Z,100808.27
2018-09-24T18:28:53.463Z,100813.66
2018-09-24T18:31:26.921Z,100811.62
2018-09-24T18:34:00.499Z,100808.64
2018-09-24T18:36:33.937Z,100810.58
2018-09-24T18:39:07.482Z,100818.74
2018-09-24T18:41:41.204Z,100821.23
2018-09-24T18:44:14.782Z,100822.39
2018-09-24T18:46:48.327Z,100829.36
2018-09-24T18:49:21.902Z,100831.47
2018-09-24T18:51:55.535Z,100831.39
2018-09-24T18:54:29.083Z,100839.73
2018-09-24T18:57:02.791Z,100843.63
2018-09-24T18:59:36.390Z,100850.69
2018-09-24T19:02:10.108Z,100850.19
2018-09-24T19:04:43.786Z,100854.96
2018-09-24T19:07:17.546Z,100855.83
2018-09-24T19:09:51.341Z,100864.17
2018-09-24T19:12:25.113Z,100862.39
2018-09-24T19:14:58.539Z,100864.09
2018-09-24T19:17:32.141Z,100869.41
2018-09-24T19:20:05.847Z,100868.94
2018-09-24T19:22:39.390Z,100864.09
2018-09-24T19:25:12.927Z,100874.25
2018-09-24T19:27:46.458Z,100876.91
2018-09-24T19:30:20.539Z,100882.64
2018-09-24T19:32:54.259Z,100887.95
2018-09-24T19:35:27.872Z,100883.96
2018-09-24T19:38:01.571Z,100889.28
2018-09-24T19:40:35.179Z,100892.85
2018-09-24T19:43:08.642Z,100901.69
2018-09-24T19:45:42.439Z,100903.94
2018-09-24T19:48:15.864Z,100899.58
2018-09-24T19:50:49.576Z,100895.67
2018-09-24T19:53:23.271Z,100896.22
2018-09-24T19:55:56.860Z,100896.62
2018-09-24T19:58:30.363Z,100895.34
2018-09-24T20:01:03.982Z,100898.50
2018-09-24T20:03:37.345Z,100895.92
2018-09-24T20:06:11.074Z,100900.37
2018-09-24T20:08:44.688Z,100902.56
2018-09-24T20:11:18.493Z,100903.02
2018-09-24T20:13:52.110Z,100905.77
2018-09-24T20:16:25.792Z,100912.86
2018-09-24T20:18:59.443Z,100909.42
2018-09-24T20:21:32.942Z,100908.66
2018-09-24T20:24:06.575Z,100916.67
2018-09-24T20:26:40.068Z,100915.84
2018-09-24T20:29:13.783Z,100919.50
2018-09-24T20:31:47.622Z,100920.45
2018-09-24T20:34:21.419Z,100930.20
2018-09-24T20:36:55.427Z,100929.11
2018-09-24T20:39:29.151Z,100926.50
2018-09-24T20:42:02.836Z,100931.48
2018-09-24T20:44:36.380Z,100930.32
2018-09-24T20:47:10.270Z,100932.11
2018-09-24T20:49:43.992Z,100936.70
2018-09-24T20:52:17.818Z,100938.11
2018-09-24T20:54:51.172Z,100943.05
2018-09-24T20:57:24.618Z,100946.70
2018-09-24T20:59:58.091Z,100955.69
2018-09-24T21:02:31.846Z,100954.89
2018-09-24T21:05:05.519Z,100964.72
2018-09-24T21:07:39.077Z,100966.59
2018-09-24T21:10:12.751Z,100967.61
2018-09-24T21:12:46.539Z,100976.98
2018-09-24T21:15:20.102Z,100972.28
2018-09-24T21:17:53.586Z,100975.09
2018-09-24T21:20:27.218Z,100981.39
2018-09-24T21:23:00.858Z,100985.45
2018-09-24T21:25:34.671Z,100983.41
2018-09-24T21:28:08.277Z,100985.27
2018-09-24T21:30:41.826Z,100993.76
2018-09-24T21:33:15.422Z,100991.72
2018-09-24T21:35:48.840Z,100990.47
2018-09-24T21:38:22.675Z,100996.79
2018-09-24T21:40:56.350Z,100996.07
2018-09-24T21:43:30.890Z,100998.31
2018-09-24T21:46:04.715Z,100999.33
2018-09-24T21:48:38.270Z,101000.31
2018-09-24T21:51:12.101Z,100997.81
2018-09-24T21:53:45.770Z,101004.52
2018-09-24T21:56:19.639Z,101003.34
2018-09-24T21:58:53.319Z,101007.82
2018-09-24T22:01:27.022Z,101010.16
2018-09-24T22:04:00.699Z,101016.37
2018-09-24T22:06:34.334Z,101011.67
2018-09-24T22:09:07.907Z,101027.20
2018-09-24T22:11:41.513Z,101020.23
2018-09-24T22:14:14.919Z,101023.91
2018-09-24T22:16:48.526Z,101021.33
2018-09-24T22:19:22.042Z,101021.85
2018-09-24T22:21:55.659Z,101025.03
2018-09-24T22:24:29.233Z,101013.17
2018-09-24T22:27:02.738Z,101005.74
2018-09-24T22:29:36.770Z,101007.14
2018-09-24T22:32:10.673Z,101008.99
2018-09-24T22:34:44.423Z,101012.17
2018-09-24T22:37:18.126Z,101015.42
2018-09-24T22:39:51.759Z,101015.04
2018-09-24T22:42:25.412Z,101012.08
2018-09-24T22:44:58.962Z,101003.78
2018-09-24T22:47:32.530Z,101014.00
2018-09-24T22:50:06.021Z,101011.00
2018-09-24T22:52:39.607Z,101016.00
2018-09-24T22:55:13.214Z,101020.88
2018-09-24T22:57:46.790Z,101015.72
2018-09-24T23:00:20.543Z,101012.27
2018-09-24T23:02:54.205Z,101019.77
2018-09-24T23:05:27.821Z,101021.23
2018-09-24T23:08:01.232Z,101024.86
2018-09-24T23:10:34.962Z,101027.13
2018-09-24T23:13:08.615Z,101027.27
2018-09-24T23:15:42.386Z,101029.57
2018-09-24T23:18:16.047Z,101029.22
2018-09-24T23:20:49.735Z,101034.14
2018-09-24T23:23:23.571Z,101031.55
2018-09-24T23:25:57.037Z,101038.70
2018-09-24T23:28:30.539Z,101035.25
2018-09-24T23:31:04.119Z,101042.43
2018-09-24T23:33:37.632Z,101046.47
2018-09-24T23:36:11.649Z,101049.19
2018-09-24T23:38:45.235Z,101038.66
2018-09-24T23:41:18.863Z,101034.38
2018-09-24T23:43:52.467Z,101041.91
2018-09-24T23:46:26.050Z,101045.56
2018-09-24T23:48:59.624Z,101037.71
2018-09-24T23:51:33.098Z,101037.33
2018-09-24T23:54:06.654Z,101037.84
2018-09-24T23:56:40.259Z,101030.39
2018-09-24T23:59:13.874Z,101039.69
